sensor_id;sensor_type;location;lat;lon;timestamp;P1;durP1;ratioP1;P2;durP2;ratioP2
62509;SDS011;48558;48.242;11.654;2022-10-16T00:03:05;1.40;;;1.30;;
62509;SDS011;48558;48.242;11.654;2022-10-16T00:07:18;1.45;;;1.35;;
62509;SDS011;48558;48.242;11.654;2022-10-16T00:11:40;4.82;;;1.30;;
62509;SDS011;48558;48.242;11.654;2022-10-16T00:15:55;2.15;;;1.17;;
62509;SDS011;48558;48.242;11.654;2022-10-16T00:20:08;1.60;;;1.50;;
62509;SDS011;48558;48.242;11.654;2022-10-16T00:24:21;1.23;;;1.23;;
62509;SDS011;48558;48.242;11.654;2022-10-16T00:28:33;2.75;;;1.42;;
62509;SDS011;48558;48.242;11.654;2022-10-16T00:32:46;1.27;;;1.15;;
62509;SDS011;48558;48.242;11.654;2022-10-16T00:36:58;2.08;;;1.33;;
62509;SDS011;48558;48.242;11.654;2022-10-16T00:41:17;4.60;;;1.30;;
62509;SDS011;48558;48.242;11.654;2022-10-16T00:45:30;1.30;;;1.15;;
62509;SDS011;48558;48.242;11.654;2022-10-16T00:49:43;1.35;;;1.27;;
62509;SDS011;48558;48.242;11.654;2022-10-16T00:53:55;2.30;;;1.15;;
62509;SDS011;48558;48.242;11.654;2022-10-16T00:58:09;1.55;;;1.25;;
62509;SDS011;48558;48.242;11.654;2022-10-16T01:02:21;0.90;;;0.90;;
62509;SDS011;48558;48.242;11.654;2022-10-16T01:16:12;2.60;;;1.33;;
62509;SDS011;48558;48.242;11.654;2022-10-16T01:20:31;2.42;;;1.13;;
62509;SDS011;48558;48.242;11.654;2022-10-16T01:24:49;1.58;;;1.10;;
62509;SDS011;48558;48.242;11.654;2022-10-16T01:33:39;1.10;;;1.10;;
62509;SDS011;48558;48.242;11.654;2022-10-16T01:42:10;3.00;;;1.30;;
62509;SDS011;48558;48.242;11.654;2022-10-16T01:46:27;3.05;;;1.10;;
62509;SDS011;48558;48.242;11.654;2022-10-16T01:50:42;1.08;;;1.08;;
62509;SDS011;48558;48.242;11.654;2022-10-16T01:55:01;3.90;;;1.20;;
62509;SDS011;48558;48.242;11.654;2022-10-16T01:59:16;2.75;;;1.20;;
62509;SDS011;48558;48.242;11.654;2022-10-16T02:03:32;2.38;;;1.17;;
62509;SDS011;48558;48.242;11.654;2022-10-16T02:07:47;1.27;;;1.17;;
62509;SDS011;48558;48.242;11.654;2022-10-16T02:12:12;0.80;;;0.80;;
62509;SDS011;48558;48.242;11.654;2022-10-16T02:16:48;1.13;;;1.10;;
62509;SDS011;48558;48.242;11.654;2022-10-16T02:21:02;1.05;;;1.02;;
62509;SDS011;48558;48.242;11.654;2022-10-16T02:25:37;0.95;;;0.95;;
62509;SDS011;48558;48.242;11.654;2022-10-16T02:29:57;1.10;;;1.00;;
62509;SDS011;48558;48.242;11.654;2022-10-16T02:34:13;0.98;;;0.98;;
62509;SDS011;48558;48.242;11.654;2022-10-16T02:38:28;0.90;;;0.90;;
62509;SDS011;48558;48.242;11.654;2022-10-16T02:42:42;1.08;;;1.08;;
62509;SDS011;48558;48.242;11.654;2022-10-16T02:46:55;1.00;;;1.00;;
62509;SDS011;48558;48.242;11.654;2022-10-16T02:51:07;1.92;;;1.15;;
62509;SDS011;48558;48.242;11.654;2022-10-16T02:55:19;0.93;;;0.93;;
62509;SDS011;48558;48.242;11.654;2022-10-16T02:59:32;1.20;;;1.10;;
62509;SDS011;48558;48.242;11.654;2022-10-16T03:03:44;3.03;;;1.00;;
62509;SDS011;48558;48.242;11.654;2022-10-16T03:07:56;1.10;;;1.10;;
62509;SDS011;48558;48.242;11.654;2022-10-16T03:12:11;0.90;;;0.90;;
62509;SDS011;48558;48.242;11.654;2022-10-16T03:16:24;2.20;;;0.93;;
62509;SDS011;48558;48.242;11.654;2022-10-16T03:20:36;2.40;;;1.10;;
62509;SDS011;48558;48.242;11.654;2022-10-16T03:24:48;2.08;;;0.80;;
62509;SDS011;48558;48.242;11.654;2022-10-16T03:29:02;1.10;;;1.00;;
62509;SDS011;48558;48.242;11.654;2022-10-16T03:33:15;2.10;;;1.10;;
62509;SDS011;48558;48.242;11.654;2022-10-16T03:37:27;0.80;;;0.80;;
62509;SDS011;48558;48.242;11.654;2022-10-16T03:41:40;0.85;;;0.85;;
62509;SDS011;48558;48.242;11.654;2022-10-16T03:45:52;0.98;;;0.98;;
62509;SDS011;48558;48.242;11.654;2022-10-16T03:50:04;3.97;;;1.00;;
62509;SDS011;48558;48.242;11.654;2022-10-16T03:54:17;1.00;;;1.00;;
62509;SDS011;48558;48.242;11.654;2022-10-16T03:58:30;1.25;;;1.15;;
62509;SDS011;48558;48.242;11.654;2022-10-16T04:02:42;1.25;;;1.10;;
62509;SDS011;48558;48.242;11.654;2022-10-16T04:06:59;0.90;;;0.90;;
62509;SDS011;48558;48.242;11.654;2022-10-16T04:11:12;0.90;;;0.90;;
62509;SDS011;48558;48.242;11.654;2022-10-16T04:15:25;0.88;;;0.88;;
62509;SDS011;48558;48.242;11.654;2022-10-16T04:19:37;4.20;;;1.17;;
62509;SDS011;48558;48.242;11.654;2022-10-16T04:23:50;1.42;;;1.15;;
62509;SDS011;48558;48.242;11.654;2022-10-16T04:28:02;1.00;;;1.00;;
62509;SDS011;48558;48.242;11.654;2022-10-16T04:32:14;4.07;;;1.25;;
62509;SDS011;48558;48.242;11.654;2022-10-16T04:36:27;2.15;;;1.05;;
62509;SDS011;48558;48.242;11.654;2022-10-16T04:40:41;1.00;;;1.00;;
62509;SDS011;48558;48.242;11.654;2022-10-16T04:44:54;0.82;;;0.82;;
62509;SDS011;48558;48.242;11.654;2022-10-16T04:49:06;0.95;;;0.95;;
62509;SDS011;48558;48.242;11.654;2022-10-16T04:53:19;0.80;;;0.80;;
62509;SDS011;48558;48.242;11.654;2022-10-16T04:57:31;0.93;;;0.93;;
62509;SDS011;48558;48.242;11.654;2022-10-16T05:01:45;1.38;;;1.00;;
62509;SDS011;48558;48.242;11.654;2022-10-16T05:05:57;2.25;;;0.90;;
62509;SDS011;48558;48.242;11.654;2022-10-16T05:10:10;3.15;;;1.08;;
62509;SDS011;48558;48.242;11.654;2022-10-16T05:14:22;5.07;;;1.10;;
62509;SDS011;48558;48.242;11.654;2022-10-16T05:18:34;1.95;;;0.90;;
62509;SDS011;48558;48.242;11.654;2022-10-16T05:22:47;1.00;;;1.00;;
62509;SDS011;48558;48.242;11.654;2022-10-16T05:27:00;1.08;;;0.98;;
62509;SDS011;48558;48.242;11.654;2022-10-16T05:31:12;4.03;;;1.00;;
62509;SDS011;48558;48.242;11.654;2022-10-16T05:35:24;1.02;;;0.90;;
62509;SDS011;48558;48.242;11.654;2022-10-16T05:39:37;1.23;;;1.10;;
62509;SDS011;48558;48.242;11.654;2022-10-16T05:43:50;1.60;;;1.10;;
62509;SDS011;48558;48.242;11.654;2022-10-16T05:48:02;1.13;;;1.10;;
62509;SDS011;48558;48.242;11.654;2022-10-16T05:52:15;0.90;;;0.90;;
62509;SDS011;48558;48.242;11.654;2022-10-16T05:56:27;2.45;;;1.00;;
62509;SDS011;48558;48.242;11.654;2022-10-16T06:00:40;1.00;;;0.80;;
62509;SDS011;48558;48.242;11.654;2022-10-16T06:04:52;2.95;;;1.10;;
62509;SDS011;48558;48.242;11.654;2022-10-16T06:09:08;1.10;;;1.00;;
62509;SDS011;48558;48.242;11.654;2022-10-16T06:13:21;1.95;;;1.35;;
62509;SDS011;48558;48.242;11.654;2022-10-16T06:17:33;1.65;;;1.08;;
62509;SDS011;48558;48.242;11.654;2022-10-16T06:21:46;3.53;;;1.05;;
62509;SDS011;48558;48.242;11.654;2022-10-16T06:26:08;3.60;;;0.98;;
62509;SDS011;48558;48.242;11.654;2022-10-16T06:30:23;0.80;;;0.80;;
62509;SDS011;48558;48.242;11.654;2022-10-16T06:34:35;1.05;;;0.82;;
62509;SDS011;48558;48.242;11.654;2022-10-16T06:38:53;4.28;;;0.90;;
62509;SDS011;48558;48.242;11.654;2022-10-16T06:43:06;0.90;;;0.90;;
62509;SDS011;48558;48.242;11.654;2022-10-16T06:47:18;1.10;;;1.10;;
62509;SDS011;48558;48.242;11.654;2022-10-16T06:51:30;1.52;;;1.05;;
62509;SDS011;48558;48.242;11.654;2022-10-16T06:55:50;1.00;;;1.00;;
62509;SDS011;48558;48.242;11.654;2022-10-16T07:00:03;3.58;;;1.33;;
62509;SDS011;48558;48.242;11.654;2022-10-16T07:04:16;2.15;;;1.27;;
62509;SDS011;48558;48.242;11.654;2022-10-16T07:08:30;3.33;;;1.00;;
62509;SDS011;48558;48.242;11.654;2022-10-16T07:12:44;1.02;;;1.02;;
62509;SDS011;48558;48.242;11.654;2022-10-16T07:16:57;1.25;;;1.15;;
62509;SDS011;48558;48.242;11.654;2022-10-16T07:21:10;1.00;;;1.00;;
62509;SDS011;48558;48.242;11.654;2022-10-16T07:25:26;1.27;;;1.20;;
62509;SDS011;48558;48.242;11.654;2022-10-16T07:29:39;1.95;;;1.17;;
62509;SDS011;48558;48.242;11.654;2022-10-16T07:33:52;1.40;;;1.30;;
62509;SDS011;48558;48.242;11.654;2022-10-16T07:38:05;3.75;;;1.40;;
62509;SDS011;48558;48.242;11.654;2022-10-16T07:42:17;1.25;;;1.15;;
62509;SDS011;48558;48.242;11.654;2022-10-16T07:46:30;1.17;;;1.13;;
62509;SDS011;48558;48.242;11.654;2022-10-16T07:50:43;1.42;;;1.33;;
62509;SDS011;48558;48.242;11.654;2022-10-16T07:54:56;1.20;;;1.20;;
62509;SDS011;48558;48.242;11.654;2022-10-16T07:59:08;1.63;;;1.30;;
62509;SDS011;48558;48.242;11.654;2022-10-16T08:03:21;0.93;;;0.93;;
62509;SDS011;48558;48.242;11.654;2022-10-16T08:07:33;1.25;;;1.15;;
62509;SDS011;48558;48.242;11.654;2022-10-16T08:11:46;1.23;;;1.23;;
62509;SDS011;48558;48.242;11.654;2022-10-16T08:15:58;1.40;;;1.30;;
62509;SDS011;48558;48.242;11.654;2022-10-16T08:20:11;1.40;;;1.25;;
62509;SDS011;48558;48.242;11.654;2022-10-16T08:24:23;1.15;;;1.15;;
62509;SDS011;48558;48.242;11.654;2022-10-16T08:28:36;1.92;;;1.23;;
62509;SDS011;48558;48.242;11.654;2022-10-16T08:32:49;1.40;;;1.30;;
62509;SDS011;48558;48.242;11.654;2022-10-16T08:37:01;6.20;;;1.63;;
62509;SDS011;48558;48.242;11.654;2022-10-16T08:41:17;1.65;;;1.38;;
62509;SDS011;48558;48.242;11.654;2022-10-16T08:49:58;1.70;;;1.40;;
62509;SDS011;48558;48.242;11.654;2022-10-16T08:58:52;1.30;;;1.20;;
62509;SDS011;48558;48.242;11.654;2022-10-16T09:12:23;4.90;;;1.25;;
62509;SDS011;48558;48.242;11.654;2022-10-16T09:16:53;3.42;;;1.23;;
62509;SDS011;48558;48.242;11.654;2022-10-16T09:21:29;1.40;;;1.30;;
62509;SDS011;48558;48.242;11.654;2022-10-16T09:25:44;1.50;;;1.40;;
62509;SDS011;48558;48.242;11.654;2022-10-16T09:29:59;3.63;;;1.20;;
62509;SDS011;48558;48.242;11.654;2022-10-16T09:34:31;1.17;;;1.10;;
62509;SDS011;48558;48.242;11.654;2022-10-16T09:38:46;1.50;;;1.40;;
62509;SDS011;48558;48.242;11.654;2022-10-16T09:47:55;1.40;;;1.30;;
62509;SDS011;48558;48.242;11.654;2022-10-16T09:52:12;0.98;;;0.98;;
62509;SDS011;48558;48.242;11.654;2022-10-16T09:56:30;6.28;;;1.85;;
62509;SDS011;48558;48.242;11.654;2022-10-16T10:00:48;1.08;;;1.05;;
62509;SDS011;48558;48.242;11.654;2022-10-16T10:05:03;1.95;;;1.13;;
62509;SDS011;48558;48.242;11.654;2022-10-16T10:09:31;1.00;;;1.00;;
62509;SDS011;48558;48.242;11.654;2022-10-16T10:13:49;1.33;;;1.00;;
62509;SDS011;48558;48.242;11.654;2022-10-16T10:18:02;0.90;;;0.90;;
62509;SDS011;48558;48.242;11.654;2022-10-16T10:22:22;2.20;;;1.00;;
62509;SDS011;48558;48.242;11.654;2022-10-16T10:26:38;0.90;;;0.90;;
62509;SDS011;48558;48.242;11.654;2022-10-16T10:31:00;0.85;;;0.85;;
62509;SDS011;48558;48.242;11.654;2022-10-16T10:35:27;1.30;;;0.80;;
62509;SDS011;48558;48.242;11.654;2022-10-16T10:39:49;1.00;;;1.00;;
62509;SDS011;48558;48.242;11.654;2022-10-16T10:58:08;2.55;;;1.00;;
62509;SDS011;48558;48.242;11.654;2022-10-16T11:02:40;1.20;;;1.10;;
62509;SDS011;48558;48.242;11.654;2022-10-16T11:07:07;1.13;;;1.13;;
62509;SDS011;48558;48.242;11.654;2022-10-16T11:11:38;1.20;;;1.10;;
62509;SDS011;48558;48.242;11.654;2022-10-16T11:15:59;1.23;;;1.10;;
62509;SDS011;48558;48.242;11.654;2022-10-16T11:29:29;0.73;;;0.70;;
62509;SDS011;48558;48.242;11.654;2022-10-16T11:38:29;0.80;;;0.80;;
62509;SDS011;48558;48.242;11.654;2022-10-16T11:43:04;0.70;;;0.70;;
62509;SDS011;48558;48.242;11.654;2022-10-16T11:52:15;0.60;;;0.60;;
62509;SDS011;48558;48.242;11.654;2022-10-16T11:56:28;0.65;;;0.65;;
62509;SDS011;48558;48.242;11.654;2022-10-16T12:00:56;1.52;;;0.65;;
62509;SDS011;48558;48.242;11.654;2022-10-16T12:13:50;0.60;;;0.60;;
62509;SDS011;48558;48.242;11.654;2022-10-16T12:18:03;2.78;;;0.60;;
62509;SDS011;48558;48.242;11.654;2022-10-16T12:22:15;0.60;;;0.60;;
62509;SDS011;48558;48.242;11.654;2022-10-16T12:26:37;0.90;;;0.82;;
62509;SDS011;48558;48.242;11.654;2022-10-16T12:31:03;0.60;;;0.60;;
62509;SDS011;48558;48.242;11.654;2022-10-16T12:35:22;1.30;;;0.70;;
62509;SDS011;48558;48.242;11.654;2022-10-16T12:39:37;0.60;;;0.60;;
62509;SDS011;48558;48.242;11.654;2022-10-16T12:43:51;3.22;;;0.70;;
62509;SDS011;48558;48.242;11.654;2022-10-16T12:48:04;1.27;;;1.00;;
62509;SDS011;48558;48.242;11.654;2022-10-16T12:52:41;0.68;;;0.68;;
62509;SDS011;48558;48.242;11.654;2022-10-16T13:15:15;1.02;;;0.70;;
62509;SDS011;48558;48.242;11.654;2022-10-16T13:19:53;0.60;;;0.60;;
62509;SDS011;48558;48.242;11.654;2022-10-16T13:28:35;1.05;;;0.75;;
62509;SDS011;48558;48.242;11.654;2022-10-16T13:32:52;0.70;;;0.70;;
62509;SDS011;48558;48.242;11.654;2022-10-16T13:37:21;0.60;;;0.60;;
62509;SDS011;48558;48.242;11.654;2022-10-16T13:41:34;1.55;;;0.80;;
62509;SDS011;48558;48.242;11.654;2022-10-16T13:45:56;0.60;;;0.60;;
62509;SDS011;48558;48.242;11.654;2022-10-16T13:50:13;0.70;;;0.70;;
62509;SDS011;48558;48.242;11.654;2022-10-16T13:54:27;1.23;;;0.70;;
62509;SDS011;48558;48.242;11.654;2022-10-16T13:58:43;0.60;;;0.60;;
62509;SDS011;48558;48.242;11.654;2022-10-16T14:03:00;0.70;;;0.70;;
62509;SDS011;48558;48.242;11.654;2022-10-16T14:07:18;1.50;;;1.40;;
62509;SDS011;48558;48.242;11.654;2022-10-16T14:11:43;1.60;;;1.50;;
62509;SDS011;48558;48.242;11.654;2022-10-16T14:16:04;1.15;;;0.90;;
62509;SDS011;48558;48.242;11.654;2022-10-16T14:20:20;1.23;;;1.10;;
62509;SDS011;48558;48.242;11.654;2022-10-16T14:24:40;1.42;;;0.95;;
62509;SDS011;48558;48.242;11.654;2022-10-16T14:29:03;1.55;;;0.90;;
62509;SDS011;48558;48.242;11.654;2022-10-16T14:33:24;5.63;;;1.13;;
62509;SDS011;48558;48.242;11.654;2022-10-16T14:37:45;0.80;;;0.80;;
62509;SDS011;48558;48.242;11.654;2022-10-16T14:41:58;1.08;;;0.88;;
62509;SDS011;48558;48.242;11.654;2022-10-16T14:46:15;0.70;;;0.70;;
62509;SDS011;48558;48.242;11.654;2022-10-16T14:50:31;0.52;;;0.52;;
62509;SDS011;48558;48.242;11.654;2022-10-16T14:54:46;0.80;;;0.80;;
62509;SDS011;48558;48.242;11.654;2022-10-16T14:59:00;0.80;;;0.80;;
62509;SDS011;48558;48.242;11.654;2022-10-16T15:03:14;1.05;;;1.05;;
62509;SDS011;48558;48.242;11.654;2022-10-16T15:07:27;1.10;;;1.00;;
62509;SDS011;48558;48.242;11.654;2022-10-16T15:11:40;6.65;;;0.80;;
62509;SDS011;48558;48.242;11.654;2022-10-16T15:15:54;0.88;;;0.88;;
62509;SDS011;48558;48.242;11.654;2022-10-16T15:20:06;2.67;;;0.95;;
62509;SDS011;48558;48.242;11.654;2022-10-16T15:24:23;0.80;;;0.80;;
62509;SDS011;48558;48.242;11.654;2022-10-16T15:28:36;2.10;;;0.70;;
62509;SDS011;48558;48.242;11.654;2022-10-16T15:32:48;0.80;;;0.80;;
62509;SDS011;48558;48.242;11.654;2022-10-16T15:37:02;0.70;;;0.70;;
62509;SDS011;48558;48.242;11.654;2022-10-16T15:41:15;0.95;;;0.95;;
62509;SDS011;48558;48.242;11.654;2022-10-16T15:45:28;0.95;;;0.80;;
62509;SDS011;48558;48.242;11.654;2022-10-16T15:49:40;4.10;;;1.00;;
62509;SDS011;48558;48.242;11.654;2022-10-16T15:53:52;0.90;;;0.90;;
62509;SDS011;48558;48.242;11.654;2022-10-16T15:58:05;11.98;;;2.72;;
62509;SDS011;48558;48.242;11.654;2022-10-16T16:02:20;1.73;;;1.10;;
62509;SDS011;48558;48.242;11.654;2022-10-16T16:06:32;4.22;;;1.55;;
62509;SDS011;48558;48.242;11.654;2022-10-16T16:10:45;8.68;;;1.50;;
62509;SDS011;48558;48.242;11.654;2022-10-16T16:14:57;1.30;;;1.02;;
62509;SDS011;48558;48.242;11.654;2022-10-16T16:19:15;4.35;;;1.10;;
62509;SDS011;48558;48.242;11.654;2022-10-16T16:23:38;1.77;;;1.00;;
62509;SDS011;48558;48.242;11.654;2022-10-16T16:27:50;1.90;;;1.00;;
62509;SDS011;48558;48.242;11.654;2022-10-16T16:32:02;0.82;;;0.82;;
62509;SDS011;48558;48.242;11.654;2022-10-16T16:36:15;1.00;;;1.00;;
62509;SDS011;48558;48.242;11.654;2022-10-16T16:40:37;1.08;;;0.90;;
62509;SDS011;48558;48.242;11.654;2022-10-16T16:44:50;0.80;;;0.80;;
62509;SDS011;48558;48.242;11.654;2022-10-16T16:49:02;0.80;;;0.80;;
62509;SDS011;48558;48.242;11.654;2022-10-16T16:53:15;1.90;;;1.00;;
62509;SDS011;48558;48.242;11.654;2022-10-16T16:57:27;0.70;;;0.70;;
62509;SDS011;48558;48.242;11.654;2022-10-16T17:01:40;1.75;;;1.25;;
62509;SDS011;48558;48.242;11.654;2022-10-16T17:06:00;2.20;;;0.98;;
62509;SDS011;48558;48.242;11.654;2022-10-16T17:10:17;2.45;;;1.10;;
62509;SDS011;48558;48.242;11.654;2022-10-16T17:14:30;2.90;;;1.08;;
62509;SDS011;48558;48.242;11.654;2022-10-16T17:18:42;3.50;;;1.10;;
62509;SDS011;48558;48.242;11.654;2022-10-16T17:22:55;1.90;;;0.90;;
62509;SDS011;48558;48.242;11.654;2022-10-16T17:27:08;1.33;;;0.80;;
62509;SDS011;48558;48.242;11.654;2022-10-16T17:31:24;1.17;;;1.10;;
62509;SDS011;48558;48.242;11.654;2022-10-16T17:35:43;1.00;;;1.00;;
62509;SDS011;48558;48.242;11.654;2022-10-16T17:39:57;1.13;;;1.10;;
62509;SDS011;48558;48.242;11.654;2022-10-16T17:44:10;3.65;;;0.98;;
62509;SDS011;48558;48.242;11.654;2022-10-16T17:48:30;1.45;;;0.85;;
62509;SDS011;48558;48.242;11.654;2022-10-16T17:52:43;4.50;;;1.10;;
62509;SDS011;48558;48.242;11.654;2022-10-16T17:56:55;3.28;;;0.85;;
62509;SDS011;48558;48.242;11.654;2022-10-16T18:01:15;1.00;;;1.00;;
62509;SDS011;48558;48.242;11.654;2022-10-16T18:05:36;4.75;;;1.00;;
62509;SDS011;48558;48.242;11.654;2022-10-16T18:09:49;3.55;;;1.10;;
62509;SDS011;48558;48.242;11.654;2022-10-16T18:14:22;0.80;;;0.80;;
62509;SDS011;48558;48.242;11.654;2022-10-16T18:18:38;2.88;;;1.20;;
62509;SDS011;48558;48.242;11.654;2022-10-16T18:28:26;2.55;;;1.58;;
62509;SDS011;48558;48.242;11.654;2022-10-16T18:32:39;3.75;;;1.42;;
62509;SDS011;48558;48.242;11.654;2022-10-16T18:36:51;2.85;;;1.33;;
62509;SDS011;48558;48.242;11.654;2022-10-16T18:41:06;7.22;;;1.83;;
62509;SDS011;48558;48.242;11.654;2022-10-16T18:45:18;3.72;;;1.30;;
62509;SDS011;48558;48.242;11.654;2022-10-16T18:49:31;11.75;;;1.77;;
62509;SDS011;48558;48.242;11.654;2022-10-16T18:53:44;1.50;;;1.40;;
62509;SDS011;48558;48.242;11.654;2022-10-16T18:57:58;6.03;;;1.70;;
62509;SDS011;48558;48.242;11.654;2022-10-16T19:02:11;1.80;;;1.70;;
62509;SDS011;48558;48.242;11.654;2022-10-16T19:06:24;3.33;;;1.90;;
62509;SDS011;48558;48.242;11.654;2022-10-16T19:10:37;3.17;;;1.98;;
62509;SDS011;48558;48.242;11.654;2022-10-16T19:14:50;3.20;;;1.65;;
62509;SDS011;48558;48.242;11.654;2022-10-16T19:19:04;3.38;;;1.60;;
62509;SDS011;48558;48.242;11.654;2022-10-16T19:23:18;2.00;;;1.70;;
62509;SDS011;48558;48.242;11.654;2022-10-16T19:27:30;2.55;;;1.95;;
62509;SDS011;48558;48.242;11.654;2022-10-16T19:31:42;4.88;;;1.80;;
62509;SDS011;48558;48.242;11.654;2022-10-16T19:36:05;4.63;;;1.65;;
62509;SDS011;48558;48.242;11.654;2022-10-16T19:40:18;2.10;;;1.90;;
62509;SDS011;48558;48.242;11.654;2022-10-16T19:44:31;4.53;;;1.88;;
62509;SDS011;48558;48.242;11.654;2022-10-16T19:48:43;5.82;;;1.90;;
62509;SDS011;48558;48.242;11.654;2022-10-16T19:52:57;2.17;;;1.60;;
62509;SDS011;48558;48.242;11.654;2022-10-16T19:57:09;5.43;;;1.92;;
62509;SDS011;48558;48.242;11.654;2022-10-16T20:01:22;5.50;;;1.60;;
62509;SDS011;48558;48.242;11.654;2022-10-16T20:05:35;9.93;;;1.55;;
62509;SDS011;48558;48.242;11.654;2022-10-16T20:09:48;1.50;;;1.42;;
62509;SDS011;48558;48.242;11.654;2022-10-16T20:14:01;3.42;;;1.67;;
62509;SDS011;48558;48.242;11.654;2022-10-16T20:18:15;4.93;;;1.63;;
62509;SDS011;48558;48.242;11.654;2022-10-16T20:22:27;6.88;;;2.13;;
62509;SDS011;48558;48.242;11.654;2022-10-16T20:26:40;2.88;;;2.58;;
62509;SDS011;48558;48.242;11.654;2022-10-16T20:30:52;3.33;;;2.38;;
62509;SDS011;48558;48.242;11.654;2022-10-16T20:35:05;3.05;;;2.42;;
62509;SDS011;48558;48.242;11.654;2022-10-16T20:39:18;7.97;;;3.53;;
62509;SDS011;48558;48.242;11.654;2022-10-16T20:43:30;6.05;;;2.88;;
62509;SDS011;48558;48.242;11.654;2022-10-16T20:47:43;3.22;;;2.60;;
62509;SDS011;48558;48.242;11.654;2022-10-16T20:51:55;6.88;;;2.67;;
62509;SDS011;48558;48.242;11.654;2022-10-16T20:56:07;5.78;;;2.72;;
62509;SDS011;48558;48.242;11.654;2022-10-16T21:00:22;3.65;;;2.28;;
62509;SDS011;48558;48.242;11.654;2022-10-16T21:08:53;2.67;;;2.13;;
62509;SDS011;48558;48.242;11.654;2022-10-16T21:13:05;2.88;;;1.90;;
62509;SDS011;48558;48.242;11.654;2022-10-16T21:17:18;6.97;;;2.10;;
62509;SDS011;48558;48.242;11.654;2022-10-16T21:21:32;5.60;;;2.25;;
62509;SDS011;48558;48.242;11.654;2022-10-16T21:25:49;2.90;;;2.65;;
62509;SDS011;48558;48.242;11.654;2022-10-16T21:30:01;3.47;;;2.70;;
62509;SDS011;48558;48.242;11.654;2022-10-16T21:34:14;3.63;;;2.70;;
62509;SDS011;48558;48.242;11.654;2022-10-16T21:38:27;2.75;;;2.55;;
62509;SDS011;48558;48.242;11.654;2022-10-16T21:42:39;3.08;;;2.78;;
62509;SDS011;48558;48.242;11.654;2022-10-16T21:46:51;4.47;;;3.05;;
62509;SDS011;48558;48.242;11.654;2022-10-16T21:51:04;3.25;;;2.80;;
62509;SDS011;48558;48.242;11.654;2022-10-16T21:55:17;4.57;;;2.20;;
62509;SDS011;48558;48.242;11.654;2022-10-16T21:59:29;2.30;;;2.10;;
62509;SDS011;48558;48.242;11.654;2022-10-16T22:03:43;2.20;;;2.00;;
62509;SDS011;48558;48.242;11.654;2022-10-16T22:07:56;2.60;;;2.40;;
62509;SDS011;48558;48.242;11.654;2022-10-16T22:12:08;3.70;;;2.75;;
62509;SDS011;48558;48.242;11.654;2022-10-16T22:16:21;6.20;;;2.70;;
62509;SDS011;48558;48.242;11.654;2022-10-16T22:20:42;4.15;;;3.08;;
62509;SDS011;48558;48.242;11.654;2022-10-16T22:24:55;10.77;;;3.33;;
62509;SDS011;48558;48.242;11.654;2022-10-16T22:29:13;4.88;;;3.33;;
62509;SDS011;48558;48.242;11.654;2022-10-16T22:33:26;9.10;;;3.55;;
62509;SDS011;48558;48.242;11.654;2022-10-16T22:37:39;4.97;;;3.28;;
62509;SDS011;48558;48.242;11.654;2022-10-16T22:41:52;4.63;;;2.80;;
62509;SDS011;48558;48.242;11.654;2022-10-16T22:46:05;3.25;;;2.47;;
62509;SDS011;48558;48.242;11.654;2022-10-16T22:50:19;4.75;;;2.25;;
62509;SDS011;48558;48.242;11.654;2022-10-16T22:54:32;2.97;;;2.28;;
62509;SDS011;48558;48.242;11.654;2022-10-16T22:58:44;2.13;;;2.03;;
62509;SDS011;48558;48.242;11.654;2022-10-16T23:02:58;3.22;;;2.38;;
62509;SDS011;48558;48.242;11.654;2022-10-16T23:07:10;3.53;;;2.15;;
62509;SDS011;48558;48.242;11.654;2022-10-16T23:11:22;4.65;;;2.25;;
62509;SDS011;48558;48.242;11.654;2022-10-16T23:15:39;4.72;;;2.05;;
62509;SDS011;48558;48.242;11.654;2022-10-16T23:19:52;1.85;;;1.75;;
62509;SDS011;48558;48.242;11.654;2022-10-16T23:24:04;5.05;;;2.20;;
62509;SDS011;48558;48.242;11.654;2022-10-16T23:28:17;1.92;;;1.63;;
62509;SDS011;48558;48.242;11.654;2022-10-16T23:32:29;4.47;;;2.45;;
62509;SDS011;48558;48.242;11.654;2022-10-16T23:36:41;2.70;;;2.15;;
62509;SDS011;48558;48.242;11.654;2022-10-16T23:40:55;4.50;;;2.33;;
62509;SDS011;48558;48.242;11.654;2022-10-16T23:45:08;3.70;;;2.80;;
62509;SDS011;48558;48.242;11.654;2022-10-16T23:49:20;3.42;;;2.50;;
62509;SDS011;48558;48.242;11.654;2022-10-16T23:53:32;2.45;;;2.17;;
62509;SDS011;48558;48.242;11.654;2022-10-16T23:57:45;4.30;;;2.15;;
